Time;durP1;ratioP1;P1;durP2;ratioP2;P2;SDS_P1;SDS_P2;PMS_P1;PMS_P2;Temp;Humidity;BMP_temperature;BMP_pressure;BME280_temperature;BME280_humidity;BME280_pressure;Samples;Min_cycle;Max_cycle;Signal;HPM_P1;HPM_P2
2022/12/27 00:02:22;;;;;;;5.75;2.22;;;;;;;1.52;100.00;100729.53;5004455;28;20074;-91
2022/12/27 00:04:49;;;;;;;7.32;2.70;;;;;;;1.53;100.00;100727.78;5005924;28;20045;-91
2022/12/27 00:07:14;;;;;;;4.50;2.50;;;;;;;1.51;100.00;100722.63;5005580;28;20029;-90
2022/12/27 00:09:40;;;;;;;7.93;2.72;;;;;;;1.55;100.00;100728.50;5004541;28;20385;-91
2022/12/27 00:12:06;;;;;;;7.53;2.75;;;;;;;1.54;100.00;100738.13;5021884;28;20398;-90
2022/12/27 00:14:32;;;;;;;7.15;2.22;;;;;;;1.52;100.00;100739.94;5011611;28;20483;-91
2022/12/27 00:16:58;;;;;;;6.25;2.90;;;;;;;1.48;100.00;100725.41;5001472;28;20033;-91
2022/12/27 00:19:24;;;;;;;8.02;2.67;;;;;;;1.47;100.00;100729.75;4993951;28;20034;-90
2022/12/27 00:21:49;;;;;;;6.47;2.90;;;;;;;1.44;100.00;100721.25;5028007;28;20045;-90
2022/12/27 00:24:15;;;;;;;9.70;3.63;;;;;;;1.37;100.00;100712.91;4985435;28;20038;-90
2022/12/27 00:26:41;;;;;;;18.05;8.45;;;;;;;1.34;100.00;100715.66;4995066;28;20041;-91
2022/12/27 00:29:09;;;;;;;8.07;5.03;;;;;;;1.35;100.00;100709.56;4994878;28;20034;-90
2022/12/27 00:31:36;;;;;;;12.23;6.20;;;;;;;1.32;100.00;100713.13;4995256;28;20479;-90
2022/12/27 00:34:04;;;;;;;16.35;9.70;;;;;;;1.30;100.00;100711.53;4995151;28;20068;-90
2022/12/27 00:36:30;;;;;;;15.05;8.23;;;;;;;1.26;100.00;100713.44;5011367;28;20054;-91
2022/12/27 00:38:58;;;;;;;11.55;5.38;;;;;;;1.23;100.00;100717.06;4993462;28;20103;-91
2022/12/27 00:41:24;;;;;;;6.90;3.53;;;;;;;1.23;100.00;100714.44;5008884;28;20042;-91
2022/12/27 00:43:50;;;;;;;7.18;5.35;;;;;;;1.28;100.00;100702.94;4990893;28;20038;-90
2022/12/27 00:46:16;;;;;;;11.35;5.57;;;;;;;1.32;100.00;100707.09;4978363;28;20041;-90
2022/12/27 00:48:43;;;;;;;11.00;4.82;;;;;;;1.38;100.00;100685.94;5008160;28;20510;-91
2022/12/27 00:51:17;;;;;;;9.40;4.95;;;;;;;1.47;100.00;100685.47;4994843;28;20038;-90
2022/12/27 00:53:43;;;;;;;10.88;4.78;;;;;;;1.51;100.00;100682.72;4992448;28;20047;-91
2022/12/27 00:56:21;;;;;;;12.05;4.40;;;;;;;1.54;100.00;100679.94;5002956;28;20042;-90
2022/12/27 00:58:51;;;;;;;8.57;3.83;;;;;;;1.55;100.00;100690.28;5005084;28;20509;-89
2022/12/27 01:01:19;;;;;;;12.50;5.97;;;;;;;1.63;100.00;100683.81;4987549;28;20038;-91
2022/12/27 01:03:45;;;;;;;28.88;15.98;;;;;;;1.61;100.00;100669.13;4990712;28;20041;-91
2022/12/27 01:06:20;;;;;;;57.20;31.13;;;;;;;1.61;100.00;100666.50;5000922;28;20104;-92
2022/12/27 01:08:47;;;;;;;25.55;13.95;;;;;;;1.49;100.00;100664.56;4997082;28;20042;-92
2022/12/27 01:11:14;;;;;;;7.18;4.93;;;;;;;1.39;100.00;100652.91;5000733;28;20151;-90
2022/12/27 01:13:41;;;;;;;8.10;4.10;;;;;;;1.34;100.00;100653.16;5004154;28;20041;-91
2022/12/27 01:16:16;;;;;;;7.35;4.30;;;;;;;1.28;100.00;100643.91;4987920;28;20173;-91
2022/12/27 01:18:43;;;;;;;9.90;3.50;;;;;;;1.24;100.00;100648.41;4980843;28;20069;-90
2022/12/27 01:21:12;;;;;;;8.90;4.05;;;;;;;1.32;100.00;100647.19;5016094;28;20057;-91
2022/12/27 01:23:39;;;;;;;14.95;5.18;;;;;;;1.34;100.00;100645.34;5016719;28;20596;-91
2022/12/27 01:26:09;;;;;;;9.35;4.55;;;;;;;1.35;100.00;100641.84;4988283;28;20071;-91
2022/12/27 01:28:36;;;;;;;10.23;4.53;;;;;;;1.36;100.00;100641.75;4991179;28;20125;-91
2022/12/27 01:31:08;;;;;;;12.90;4.82;;;;;;;1.39;100.00;100637.28;5016743;28;20067;-90
2022/12/27 01:33:35;;;;;;;9.10;5.05;;;;;;;1.41;100.00;100641.50;5021766;28;20037;-89
2022/12/27 01:36:17;;;;;;;13.90;5.53;;;;;;;1.46;100.00;100642.13;5002685;28;20032;-90
2022/12/27 01:38:44;;;;;;;10.60;5.10;;;;;;;1.43;100.00;100625.81;4999587;28;20045;-91
2022/12/27 01:44:50;;;;;;;10.80;5.50;;;;;;;1.51;100.00;100615.81;5005244;28;20041;-90
2022/12/27 01:47:32;;;;;;;17.98;6.55;;;;;;;1.39;100.00;100611.25;4982913;28;20056;-90
2022/12/27 01:50:01;;;;;;;16.50;7.68;;;;;;;1.33;100.00;100599.41;4996542;28;20459;-91
2022/12/27 01:52:36;;;;;;;18.40;7.82;;;;;;;1.41;100.00;100612.00;5003907;28;20610;-90
2022/12/27 01:55:29;;;;;;;17.58;7.55;;;;;;;1.44;100.00;100601.44;5005110;28;20040;-90
2022/12/27 01:58:01;;;;;;;20.20;7.93;;;;;;;1.49;100.00;100591.63;4965377;28;20065;-90
2022/12/27 02:00:27;;;;;;;20.90;9.18;;;;;;;1.52;100.00;100586.25;5006879;28;20125;-90
2022/12/27 02:02:53;;;;;;;16.45;8.57;;;;;;;1.54;100.00;100581.81;5001204;28;20096;-90
2022/12/27 02:05:20;;;;;;;16.08;5.43;;;;;;;1.55;100.00;100578.25;5003633;28;20046;-92
2022/12/27 02:08:01;;;;;;;9.57;3.55;;;;;;;1.60;100.00;100570.19;5007469;28;20034;-90
2022/12/27 02:10:28;;;;;;;6.18;2.40;;;;;;;1.66;100.00;100571.63;4986994;28;20437;-89
2022/12/27 02:12:56;;;;;;;7.60;2.45;;;;;;;1.60;100.00;100552.81;4996811;28;20077;-90
2022/12/27 02:15:22;;;;;;;4.45;1.88;;;;;;;1.61;100.00;100549.25;5020690;28;20025;-91
2022/12/27 02:17:48;;;;;;;8.40;1.90;;;;;;;1.64;100.00;100555.25;4981642;28;20038;-91
2022/12/27 02:20:21;;;;;;;10.00;3.10;;;;;;;1.65;100.00;100544.75;4993843;28;20062;-91
2022/12/27 02:26:26;;;;;;;8.32;2.13;;;;;;;1.72;100.00;100537.44;5019024;28;20034;-92
2022/12/27 02:29:13;;;;;;;4.45;1.95;;;;;;;1.78;100.00;100534.47;4996140;28;20129;-91
2022/12/27 02:31:43;;;;;;;2.13;1.65;;;;;;;1.82;100.00;100519.50;4983293;28;20044;-92
2022/12/27 02:34:21;;;;;;;6.55;2.95;;;;;;;1.91;100.00;100523.38;5025271;28;20037;-91
2022/12/27 02:36:49;;;;;;;11.38;4.20;;;;;;;1.95;100.00;100533.53;4979475;28;20485;-90
2022/12/27 02:39:16;;;;;;;9.10;5.43;;;;;;;1.96;100.00;100530.00;4980333;28;20111;-91
2022/12/27 02:53:04;;;;;;;24.52;14.85;;;;;;;1.76;100.00;100506.81;5004736;28;20466;-90
2022/12/27 02:57:07;;;;;;;30.80;17.00;;;;;;;1.71;100.00;100505.31;4990500;28;20490;-91
2022/12/27 02:59:07;;;;;;;25.13;15.35;;;;;;;1.65;100.00;100496.97;5011882;28;20113;-91
2022/12/27 03:04:40;;;;;;;27.17;15.18;;;;;;;1.55;100.00;100488.81;5024561;28;20076;-91
2022/12/27 03:07:44;;;;;;;19.88;12.35;;;;;;;1.57;100.00;100479.16;5005304;28;20034;-91
2022/12/27 03:16:40;;;;;;;22.63;13.20;;;;;;;1.64;100.00;100461.44;5007665;28;20567;-91
2022/12/27 03:33:11;;;;;;;13.07;7.15;;;;;;;1.77;100.00;100431.13;4995978;28;20099;-91
2022/12/27 03:33:21;;;;;;;6.40;1.45;;;;;;;1.97;100.00;100416.13;5017450;28;20061;-91
2022/12/27 03:39:09;;;;;;;5.57;1.30;;;;;;;2.20;100.00;100403.50;5012053;28;20140;-91
2022/12/27 03:44:28;;;;;;;9.80;1.42;;;;;;;2.37;100.00;100401.66;4996233;28;20037;-90
2022/12/27 03:47:04;;;;;;;7.18;1.33;;;;;;;2.44;100.00;100395.97;5010773;28;20459;-90
2022/12/27 03:50:02;;;;;;;7.78;1.75;;;;;;;2.50;100.00;100392.16;5009311;28;20065;-90
2022/12/27 03:52:46;;;;;;;6.13;1.35;;;;;;;2.52;100.00;100374.66;5008850;28;20487;-90
2022/12/27 03:55:12;;;;;;;5.13;1.50;;;;;;;2.59;100.00;100364.69;4993723;28;20176;-90
2022/12/27 03:57:39;;;;;;;7.18;1.45;;;;;;;2.63;100.00;100347.88;5026765;28;20147;-90
2022/12/27 04:00:05;;;;;;;6.20;1.25;;;;;;;2.66;100.00;100352.09;4979104;28;20026;-90
2022/12/27 04:02:39;;;;;;;6.22;1.35;;;;;;;2.66;100.00;100352.09;5011132;28;20037;-90
2022/12/27 04:05:05;;;;;;;4.95;1.55;;;;;;;2.68;100.00;100345.00;5010951;28;20049;-90
2022/12/27 04:07:31;;;;;;;4.60;1.70;;;;;;;2.72;100.00;100343.88;4994611;28;20037;-91
2022/12/27 04:34:41;;;;;;;10.52;1.30;;;;;;;2.97;100.00;100282.28;5024108;28;20394;-91
2022/12/27 04:37:09;;;;;;;5.65;1.40;;;;;;;3.03;100.00;100275.81;4978742;28;20040;-90
2022/12/27 04:39:34;;;;;;;2.97;1.25;;;;;;;3.06;100.00;100259.94;4975955;28;20026;-91
2022/12/27 04:56:00;;;;;;;9.25;1.45;;;;;;;3.23;100.00;100210.03;4997084;28;20092;-91
2022/12/27 04:58:27;;;;;;;7.90;2.08;;;;;;;3.26;100.00;100202.94;5018889;28;20034;-90
2022/12/27 05:03:39;;;;;;;8.20;1.20;;;;;;;3.34;100.00;100182.38;5009430;28;20128;-90
2022/12/27 05:06:05;;;;;;;10.43;1.60;;;;;;;3.37;100.00;100178.72;4994924;28;20104;-91
2022/12/27 05:14:07;;;;;;;10.23;1.70;;;;;;;3.41;100.00;100154.88;4995378;28;20042;-91
2022/12/27 05:16:39;;;;;;;7.28;1.52;;;;;;;3.42;100.00;100142.66;4994834;28;20064;-90
2022/12/27 05:19:07;;;;;;;7.63;1.38;;;;;;;3.46;100.00;100131.06;4982779;28;20121;-91
2022/12/27 05:25:33;;;;;;;8.48;1.75;;;;;;;3.52;100.00;100114.13;4997248;28;20022;-90
2022/12/27 05:27:18;;;;;;;2.83;1.20;;;;;;;3.63;100.00;100100.31;5014329;28;20029;-91
2022/12/27 05:29:45;;;;;;;8.65;1.40;;;;;;;3.66;100.00;100100.09;5013039;28;20478;-91
2022/12/27 05:32:11;;;;;;;8.23;1.58;;;;;;;3.72;100.00;100092.66;5013785;28;20068;-91
2022/12/27 05:34:37;;;;;;;5.28;1.17;;;;;;;3.75;100.00;100083.75;5004771;28;20041;-90
2022/12/27 05:37:03;;;;;;;2.83;1.20;;;;;;;3.77;100.00;100083.66;5013389;28;20037;-92
2022/12/27 05:39:28;;;;;;;8.13;1.27;;;;;;;3.83;100.00;100078.81;5007577;28;20044;-91
2022/12/27 05:41:54;;;;;;;5.68;1.15;;;;;;;3.92;100.00;100066.00;4995404;28;20042;-91
2022/12/27 05:44:20;;;;;;;5.60;1.30;;;;;;;4.00;100.00;100062.88;5015307;28;20042;-90
2022/12/27 05:46:46;;;;;;;13.27;1.45;;;;;;;4.01;100.00;100061.91;4987605;28;20033;-90
2022/12/27 05:49:11;;;;;;;11.43;1.48;;;;;;;4.02;100.00;100050.50;4994898;28;20037;-90
2022/12/27 05:51:37;;;;;;;7.35;1.60;;;;;;;4.10;100.00;100037.69;4997849;28;20041;-90
2022/12/27 05:54:03;;;;;;;8.43;1.83;;;;;;;4.20;100.00;100037.88;5012264;28;20524;-90
2022/12/27 05:56:29;;;;;;;7.25;1.15;;;;;;;4.28;100.00;100029.44;5012665;28;20500;-90
2022/12/27 05:58:54;;;;;;;5.00;0.80;;;;;;;4.41;100.00;100018.91;5013141;28;20041;-89
2022/12/27 06:01:20;;;;;;;14.38;1.65;;;;;;;4.49;100.00;100015.72;5012134;28;20030;-90
2022/12/27 06:03:46;;;;;;;8.32;1.00;;;;;;;4.56;100.00;100009.91;5012183;28;20468;-90
2022/12/27 06:06:12;;;;;;;6.70;1.00;;;;;;;4.63;100.00;100002.44;4995057;28;20494;-90
2022/12/27 06:08:38;;;;;;;5.72;0.52;;;;;;;4.74;100.00;100008.63;4996189;28;20385;-90
2022/12/27 06:11:05;;;;;;;6.63;1.30;;;;;;;4.78;100.00;99997.78;4975959;28;20376;-90
2022/12/27 06:13:32;;;;;;;7.63;1.15;;;;;;;4.84;100.00;99996.50;5010944;28;20493;-90
2022/12/27 06:16:00;;;;;;;7.72;0.88;;;;;;;4.93;100.00;99989.69;5011426;28;20497;-90
2022/12/27 06:18:31;;;;;;;6.32;0.80;;;;;;;5.03;100.00;99981.97;4993002;28;20049;-91
2022/12/27 06:21:03;;;;;;;6.68;0.80;;;;;;;5.13;100.00;99982.91;5010317;28;20026;-87
2022/12/27 06:23:29;;;;;;;7.43;0.98;;;;;;;5.17;100.00;99967.78;4991463;28;20487;-87
2022/12/27 06:25:54;;;;;;;8.65;0.88;;;;;;;5.29;100.00;99958.94;5011057;28;20033;-90
2022/12/27 06:28:20;;;;;;;10.05;1.80;;;;;;;5.51;100.00;99953.78;5013298;28;20120;-90
2022/12/27 06:30:46;;;;;;;10.60;1.40;;;;;;;5.71;100.00;99944.31;5013611;28;20382;-89
2022/12/27 06:33:12;;;;;;;8.85;1.13;;;;;;;5.86;100.00;99934.34;5012961;28;20042;-90
2022/12/27 06:35:37;;;;;;;8.18;1.02;;;;;;;5.98;100.00;99914.13;5001510;28;20034;-91
2022/12/27 06:38:03;;;;;;;14.88;1.40;;;;;;;6.05;100.00;99915.31;5010323;28;20072;-89
2022/12/27 06:40:29;;;;;;;8.63;1.60;;;;;;;6.12;100.00;99904.31;5027949;28;20364;-90
2022/12/27 06:42:55;;;;;;;12.00;1.67;;;;;;;6.18;100.00;99898.56;5028023;28;20285;-90
2022/12/27 06:45:21;;;;;;;7.70;0.70;;;;;;;6.29;100.00;99895.03;5008201;28;20030;-91
2022/12/27 06:47:46;;;;;;;10.82;0.95;;;;;;;6.35;100.00;99886.63;4995706;28;20442;-90
2022/12/27 06:50:12;;;;;;;6.10;0.80;;;;;;;6.37;100.00;99884.69;5011715;28;20414;-90
2022/12/27 06:52:38;;;;;;;6.18;1.10;;;;;;;6.44;100.00;99877.13;5011984;28;20112;-90
2022/12/27 06:55:05;;;;;;;12.88;1.58;;;;;;;6.50;100.00;99873.97;5001981;28;20049;-91
2022/12/27 06:57:30;;;;;;;7.65;0.73;;;;;;;6.51;100.00;99867.78;4998237;28;20552;-90
2022/12/27 06:59:56;;;;;;;9.70;0.95;;;;;;;6.57;100.00;99871.66;5024233;28;20034;-90
2022/12/27 07:02:22;;;;;;;6.63;0.82;;;;;;;6.58;100.00;99862.81;4985697;28;20085;-86
2022/12/27 07:04:48;;;;;;;4.63;0.65;;;;;;;6.64;100.00;99856.22;5010561;28;20052;-85
2022/12/27 07:07:13;;;;;;;11.52;0.85;;;;;;;6.69;100.00;99861.88;4997743;28;20037;-90
2022/12/27 07:09:39;;;;;;;7.55;0.88;;;;;;;6.73;100.00;99863.28;4997683;28;20034;-90
2022/12/27 07:12:05;;;;;;;6.05;0.75;;;;;;;6.74;100.00;99857.06;5008686;28;20034;-86
2022/12/27 07:14:31;;;;;;;9.00;0.77;;;;;;;6.79;100.00;99859.28;4993799;28;20128;-86
2022/12/27 07:16:56;;;;;;;5.97;0.70;;;;;;;6.81;100.00;99860.00;4998542;28;20367;-90
2022/12/27 07:19:22;;;;;;;5.45;0.95;;;;;;;6.87;100.00;99855.97;5000663;28;20033;-89
2022/12/27 07:21:48;;;;;;;6.50;0.65;;;;;;;6.82;100.00;99854.59;5012373;28;20045;-86
2022/12/27 07:24:13;;;;;;;5.43;0.75;;;;;;;6.87;100.00;99859.44;4992855;28;20034;-87
2022/12/27 07:26:39;;;;;;;6.10;0.43;;;;;;;6.88;100.00;99845.34;5013062;28;20037;-90
2022/12/27 07:29:05;;;;;;;5.57;0.52;;;;;;;6.89;100.00;99839.13;5029543;28;20041;-91
2022/12/27 07:31:31;;;;;;;2.45;0.30;;;;;;;6.90;100.00;99830.28;4992539;28;20116;-86
2022/12/27 07:33:59;;;;;;;3.90;0.45;;;;;;;6.95;100.00;99825.44;5006461;28;20049;-86
2022/12/27 07:36:28;;;;;;;4.50;0.38;;;;;;;6.98;100.00;99826.13;5011747;28;20049;-90
2022/12/27 07:38:54;;;;;;;2.78;0.20;;;;;;;6.97;100.00;99830.56;4998536;28;20926;-90
2022/12/27 07:41:20;;;;;;;4.45;0.28;;;;;;;7.02;100.00;99815.25;5008529;28;20029;-86
2022/12/27 07:43:46;;;;;;;5.63;0.52;;;;;;;7.05;100.00;99817.59;5026200;28;20049;-85
2022/12/27 07:46:14;;;;;;;2.95;0.30;;;;;;;7.11;100.00;99816.19;4994198;28;20030;-90
2022/12/27 07:48:41;;;;;;;2.35;0.10;;;;;;;7.15;100.00;99814.94;5028308;28;20041;-91
2022/12/27 07:51:08;;;;;;;3.13;0.40;;;;;;;7.17;100.00;99812.19;4994237;28;20120;-86
2022/12/27 07:53:34;;;;;;;2.42;0.35;;;;;;;7.17;100.00;99807.75;4982388;28;20104;-87
2022/12/27 07:56:12;;;;;;;3.67;0.28;;;;;;;7.25;100.00;99785.19;4994427;28;20069;-91
2022/12/27 07:58:40;;;;;;;5.40;0.22;;;;;;;7.26;100.00;99800.84;5012799;28;20372;-91
2022/12/27 08:01:06;;;;;;;1.60;0.20;;;;;;;7.27;100.00;99789.38;5011119;28;20038;-91
2022/12/27 08:03:32;;;;;;;1.45;0.20;;;;;;;7.25;100.00;99780.78;5012317;28;20172;-91
2022/12/27 08:05:58;;;;;;;2.38;0.30;;;;;;;7.28;100.00;99780.50;5010469;28;20046;-87
2022/12/27 08:08:30;;;;;;;1.17;0.03;;;;;;;7.32;100.00;99776.66;4990526;28;20038;-87
2022/12/27 08:10:57;;;;;;;2.00;0.25;;;;;;;7.34;100.00;99763.34;5007874;28;20056;-91
2022/12/27 08:13:22;;;;;;;1.38;0.13;;;;;;;7.38;100.00;99777.03;5012079;28;20109;-91
2022/12/27 08:15:51;;;;;;;2.17;0.20;;;;;;;7.44;100.00;99777.31;4982349;28;20030;-91
2022/12/27 08:18:18;;;;;;;3.42;0.30;;;;;;;7.43;100.00;99767.78;5010633;28;20036;-90
2022/12/27 08:20:44;;;;;;;1.02;0.10;;;;;;;7.48;100.00;99777.88;5007723;28;20025;-87
2022/12/27 08:23:09;;;;;;;3.50;0.20;;;;;;;7.50;100.00;99773.28;4993308;28;20034;-88
2022/12/27 08:25:35;;;;;;;1.20;0.20;;;;;;;7.52;100.00;99770.50;5007480;28;20037;-91
2022/12/27 08:28:06;;;;;;;1.75;0.20;;;;;;;7.55;100.00;99771.06;5003034;28;20041;-90
2022/12/27 08:30:32;;;;;;;3.78;0.28;;;;;;;7.54;100.00;99773.84;5008873;28;20030;-90
2022/12/27 08:33:01;;;;;;;1.38;0.03;;;;;;;7.58;100.00;99767.31;5012258;28;20555;-91
2022/12/27 08:35:27;;;;;;;2.20;0.30;;;;;;;7.58;100.00;99769.94;5038281;28;20524;-91
2022/12/27 08:37:52;;;;;;;1.30;0.60;;;;;;;7.59;100.00;99766.34;4997589;28;20038;-90
2022/12/27 08:40:18;;;;;;;1.33;0.10;;;;;;;7.63;100.00;99761.66;5021400;28;20380;-91
2022/12/27 08:42:45;;;;;;;2.42;0.20;;;;;;;7.64;100.00;99766.78;5008994;28;20156;-89
2022/12/27 08:45:11;;;;;;;1.45;0.15;;;;;;;7.66;100.00;99758.72;4977758;28;20478;-90
2022/12/27 08:47:37;;;;;;;1.55;0.20;;;;;;;7.67;100.00;99749.88;4992435;28;20070;-89
2022/12/27 08:50:06;;;;;;;1.63;0.30;;;;;;;7.73;100.00;99740.56;5019536;28;20038;-87
2022/12/27 08:52:33;;;;;;;1.30;0.25;;;;;;;7.73;100.00;99733.50;4993472;28;20046;-86
2022/12/27 08:54:58;;;;;;;1.00;0.20;;;;;;;7.73;100.00;99732.66;5006984;28;20022;-87
2022/12/27 08:57:24;;;;;;;0.77;0.40;;;;;;;7.75;100.00;99733.34;4994788;28;20029;-90
2022/12/27 08:59:50;;;;;;;2.50;0.40;;;;;;;7.77;100.00;99720.91;4994559;28;20490;-90
2022/12/27 09:02:15;;;;;;;1.67;0.30;;;;;;;7.80;100.00;99712.72;5027846;28;20033;-89
2022/12/27 09:04:41;;;;;;;1.00;0.13;;;;;;;7.80;100.00;99716.16;4994497;28;20053;-91
2022/12/27 09:07:07;;;;;;;0.40;0.10;;;;;;;7.83;100.00;99704.53;4989704;28;20038;-87
2022/12/27 09:09:33;;;;;;;0.10;0.00;;;;;;;7.82;100.00;99698.44;4989058;28;20137;-87
2022/12/27 09:11:59;;;;;;;1.00;0.20;;;;;;;7.88;100.00;99704.09;4993124;28;20038;-90
2022/12/27 09:14:25;;;;;;;0.85;0.10;;;;;;;7.87;100.00;99700.63;5025195;28;20057;-90
2022/12/27 09:16:50;;;;;;;1.75;0.20;;;;;;;7.91;100.00;99690.66;4992930;28;20371;-87
2022/12/27 09:19:16;;;;;;;2.88;0.52;;;;;;;7.92;100.00;99681.78;5005742;28;20565;-87
2022/12/27 09:21:42;;;;;;;1.02;0.10;;;;;;;7.94;100.00;99680.69;4999718;28;20483;-90
2022/12/27 09:24:12;;;;;;;0.20;0.05;;;;;;;7.99;100.00;99658.34;4975545;28;20076;-90
2022/12/27 09:26:39;;;;;;;1.50;0.10;;;;;;;7.98;100.00;99665.41;5006551;28;20045;-90
2022/12/27 09:29:05;;;;;;;0.32;0.10;;;;;;;8.00;100.00;99662.63;4988739;28;20034;-91
2022/12/27 09:31:31;;;;;;;0.80;0.10;;;;;;;8.03;100.00;99660.53;5009488;28;20037;-90
2022/12/27 09:33:57;;;;;;;1.35;0.10;;;;;;;8.02;100.00;99664.16;5008091;28;20046;-90
2022/12/27 09:36:28;;;;;;;0.65;0.08;;;;;;;8.05;100.00;99657.75;4990804;28;20033;-87
2022/12/27 09:38:56;;;;;;;0.00;0.00;;;;;;;8.06;100.00;99654.97;4993493;28;20494;-86
2022/12/27 09:41:43;;;;;;;0.20;0.10;;;;;;;8.11;100.00;99646.63;4988758;28;20042;-91
2022/12/27 09:44:16;;;;;;;0.43;0.30;;;;;;;8.12;100.00;99644.84;5014562;28;20038;-91
2022/12/27 09:47:02;;;;;;;3.40;2.55;;;;;;;8.16;100.00;99640.91;5010917;28;20042;-91
2022/12/27 09:49:37;;;;;;;2.95;1.17;;;;;;;8.18;100.00;99631.91;4990998;28;20372;-91
2022/12/27 09:52:21;;;;;;;12.68;9.50;;;;;;;8.22;100.00;99627.16;5012936;28;20104;-90
2022/12/27 09:55:16;;;;;;;2.03;1.80;;;;;;;8.22;100.00;99629.00;5014757;28;20045;-89
2022/12/27 09:57:44;;;;;;;9.40;5.38;;;;;;;8.24;100.00;99632.28;5008717;28;20525;-91
2022/12/27 10:00:19;;;;;;;11.60;8.52;;;;;;;8.27;100.00;99611.75;4999065;28;20057;-91
2022/12/27 10:02:49;;;;;;;3.30;1.30;;;;;;;8.28;100.00;99605.50;4982491;28;20046;-90
2022/12/27 10:05:25;;;;;;;4.65;2.53;;;;;;;8.33;100.00;99594.50;4998126;28;20042;-90
2022/12/27 10:08:39;;;;;;;0.75;0.40;;;;;;;8.34;100.00;99598.81;4998043;28;20030;-90
2022/12/27 10:11:37;;;;;;;5.88;3.60;;;;;;;8.35;100.00;99592.56;4963898;28;20180;-90
2022/12/27 10:14:29;;;;;;;1.40;1.23;;;;;;;8.39;100.00;99585.19;5011203;28;20034;-90
2022/12/27 10:16:58;;;;;;;3.63;1.40;;;;;;;8.41;100.00;99583.22;4998742;28;20585;-90
2022/12/27 10:19:55;;;;;;;14.75;10.95;;;;;;;8.50;100.00;99592.88;5015130;28;20045;-90
2022/12/27 10:22:44;;;;;;;5.75;3.60;;;;;;;8.50;100.00;99587.59;4983364;28;20041;-90
2022/12/27 10:25:13;;;;;;;2.17;1.70;;;;;;;8.51;100.00;99583.97;5002147;28;20104;-91
2022/12/27 10:27:40;;;;;;;5.40;3.25;;;;;;;8.55;100.00;99590.63;4985349;28;20105;-89
2022/12/27 10:30:18;;;;;;;7.65;5.25;;;;;;;8.61;100.00;99594.47;4988429;28;20073;-91
2022/12/27 10:32:45;;;;;;;4.93;3.33;;;;;;;8.67;100.00;99591.22;4998398;28;20048;-90
2022/12/27 10:35:15;;;;;;;3.92;3.47;;;;;;;8.71;100.00;99588.28;4989164;28;20073;-92
2022/12/27 10:37:42;;;;;;;2.10;1.33;;;;;;;8.72;100.00;99597.81;4998509;28;20049;-89
2022/12/27 10:40:18;;;;;;;3.60;2.47;;;;;;;8.76;100.00;99578.13;4976950;28;20026;-91
2022/12/27 10:42:55;;;;;;;2.47;1.58;;;;;;;8.80;100.00;99584.72;4976219;28;20035;-90
2022/12/27 10:45:33;;;;;;;1.80;1.70;;;;;;;8.85;100.00;99587.72;4975711;28;20038;-90
2022/12/27 10:48:24;;;;;;;3.80;2.38;;;;;;;8.89;100.00;99580.31;4977767;28;20046;-91
2022/12/27 10:50:58;;;;;;;1.98;1.77;;;;;;;8.95;100.00;99579.69;4993404;28;20042;-92
2022/12/27 10:53:32;;;;;;;3.47;2.22;;;;;;;9.01;100.00;99584.38;4994922;28;20083;-91
2022/12/27 10:56:14;;;;;;;3.97;3.55;;;;;;;9.06;100.00;99576.00;5021680;28;20082;-91
2022/12/27 10:58:46;;;;;;;2.38;1.35;;;;;;;9.08;100.00;99568.75;5002443;28;20243;-91
2022/12/27 11:01:23;;;;;;;1.65;1.38;;;;;;;9.08;100.00;99560.84;4986141;28;20100;-91
2022/12/27 11:03:50;;;;;;;5.35;3.95;;;;;;;9.08;100.00;99554.75;4994843;28;20087;-91
2022/12/27 11:06:22;;;;;;;2.28;0.93;;;;;;;9.14;100.00;99559.41;5011590;28;20088;-92
2022/12/27 11:08:49;;;;;;;1.92;0.50;;;;;;;9.15;100.00;99551.34;4986342;28;20085;-90
2022/12/27 11:11:19;;;;;;;1.42;0.93;;;;;;;9.22;100.00;99548.06;4978294;28;20117;-91
2022/12/27 11:13:46;;;;;;;0.55;0.40;;;;;;;9.23;100.00;99552.34;4969844;28;20042;-91
2022/12/27 11:16:30;;;;;;;1.15;0.40;;;;;;;9.24;100.00;99546.06;4993597;28;20120;-91
2022/12/27 11:18:59;;;;;;;0.95;0.90;;;;;;;9.22;100.00;99556.78;5008229;28;20037;-91
2022/12/27 11:21:26;;;;;;;0.40;0.25;;;;;;;9.23;100.00;99552.34;4979789;28;20407;-92
2022/12/27 11:23:57;;;;;;;1.35;0.80;;;;;;;9.25;100.00;99543.28;4992390;28;20040;-91
2022/12/27 11:26:38;;;;;;;20.08;14.13;;;;;;;9.25;100.00;99540.63;4970109;28;20549;-90
2022/12/27 11:29:05;;;;;;;13.75;10.23;;;;;;;9.26;100.00;99538.84;4994472;28;20026;-91
2022/12/27 11:31:38;;;;;;;26.52;15.00;;;;;;;9.28;100.00;99542.16;5017245;28;20034;-90
2022/12/27 11:34:17;;;;;;;13.63;12.25;;;;;;;9.30;100.00;99530.44;4993870;28;20062;-90
2022/12/27 11:36:48;;;;;;;4.38;3.05;;;;;;;9.32;100.00;99511.03;4992756;28;20495;-91
2022/12/27 11:39:46;;;;;;;6.80;5.68;;;;;;;9.34;100.00;99509.88;4987094;28;20500;-91
2022/12/27 11:42:29;;;;;;;6.65;5.07;;;;;;;9.37;100.00;99501.63;4991490;28;20042;-90
2022/12/27 11:45:18;;;;;;;6.20;4.78;;;;;;;9.39;100.00;99501.47;4975145;28;20096;-91
2022/12/27 11:47:56;;;;;;;23.63;17.02;;;;;;;9.43;100.00;99495.72;5002164;28;20057;-91
2022/12/27 11:51:02;;;;;;;3.60;2.53;;;;;;;9.44;100.00;99488.66;4994625;28;20125;-92
2022/12/27 11:54:22;;;;;;;5.13;4.47;;;;;;;9.46;100.00;99489.28;4994490;28;20037;-92
2022/12/27 11:57:04;;;;;;;4.32;3.03;;;;;;;9.48;100.00;99476.78;4957092;28;20112;-92
2022/12/27 12:00:05;;;;;;;16.70;11.77;;;;;;;9.52;100.00;99479.94;5026620;28;20026;-92
2022/12/27 12:03:03;;;;;;;24.75;19.13;;;;;;;9.57;100.00;99479.44;4988994;28;20038;-92
2022/12/27 12:05:40;;;;;;;8.57;6.65;;;;;;;9.57;100.00;99475.00;5005441;28;20050;-91
2022/12/27 12:08:37;;;;;;;10.48;8.35;;;;;;;9.59;100.00;99461.66;5011594;28;20042;-91
2022/12/27 12:11:25;;;;;;;16.52;11.55;;;;;;;9.59;100.00;99472.19;4979777;28;20081;-91
2022/12/27 12:14:17;;;;;;;17.83;11.10;;;;;;;9.61;100.00;99467.56;4973757;28;20041;-92
2022/12/27 12:16:54;;;;;;;48.83;35.20;;;;;;;9.61;100.00;99465.75;4995786;28;20042;-92
2022/12/27 12:19:53;;;;;;;20.13;15.77;;;;;;;9.62;100.00;99459.47;4971857;28;20509;-92
2022/12/27 12:22:42;;;;;;;20.42;13.60;;;;;;;9.62;100.00;99477.16;4976237;28;20069;-91
2022/12/27 12:25:32;;;;;;;3.08;2.00;;;;;;;9.61;100.00;99480.75;5020416;28;20063;-93
2022/12/27 12:28:23;;;;;;;2.83;1.75;;;;;;;9.57;100.00;99447.78;5009940;28;20030;-92
2022/12/27 12:31:22;;;;;;;1.25;0.65;;;;;;;9.46;100.00;99451.56;4989473;28;20125;-93
2022/12/27 12:34:12;;;;;;;0.80;0.50;;;;;;;9.34;100.00;99449.22;4998406;28;20038;-92
2022/12/27 12:37:04;;;;;;;0.77;0.30;;;;;;;9.30;100.00;99467.16;5007195;28;20172;-93
2022/12/27 12:39:33;;;;;;;11.65;4.88;;;;;;;9.30;100.00;99474.28;4987217;28;20137;-93
2022/12/27 12:42:17;;;;;;;19.30;9.52;;;;;;;9.28;100.00;99455.97;4957251;28;20049;-93
2022/12/27 12:45:13;;;;;;;8.82;3.38;;;;;;;9.24;100.00;99462.53;4998496;28;20062;-93
2022/12/27 12:48:01;;;;;;;2.13;0.73;;;;;;;9.15;100.00;99451.16;4999792;28;20042;-92
2022/12/27 12:51:00;;;;;;;3.80;1.23;;;;;;;9.11;100.00;99449.00;5002649;28;20137;-89
2022/12/27 12:54:01;;;;;;;1.67;0.45;;;;;;;9.05;100.00;99437.25;4991313;28;20115;-90
2022/12/27 12:57:01;;;;;;;5.45;0.90;;;;;;;8.98;100.00;99437.06;4984514;28;20046;-90
2022/12/27 12:59:45;;;;;;;6.13;0.60;;;;;;;8.88;100.00;99441.63;4987196;28;20602;-89
2022/12/27 13:02:33;;;;;;;4.00;0.82;;;;;;;8.82;100.00;99427.31;4990362;28;20042;-89
2022/12/27 13:05:36;;;;;;;10.50;1.17;;;;;;;8.76;100.00;99425.28;4978325;28;20406;-89
2022/12/27 13:08:24;;;;;;;8.60;1.20;;;;;;;8.71;100.00;99422.31;4991811;28;20366;-90
2022/12/27 13:10:49;;;;;;;11.98;1.70;;;;;;;8.66;100.00;99414.88;5004580;28;20479;-90
2022/12/27 13:13:34;;;;;;;12.73;1.50;;;;;;;8.66;100.00;99414.88;4992270;28;20050;-89
2022/12/27 13:16:36;;;;;;;17.73;2.03;;;;;;;8.61;100.00;99414.50;4995177;28;20034;-90
2022/12/27 13:19:02;;;;;;;12.38;1.98;;;;;;;8.53;100.00;99407.38;4992118;28;20053;-89
2022/12/27 13:21:56;;;;;;;13.38;1.65;;;;;;;8.54;100.00;99428.31;5006257;28;20038;-90
2022/12/27 13:24:41;;;;;;;20.83;2.15;;;;;;;8.52;100.00;99424.97;5014502;28;20916;-91
2022/12/27 13:27:38;;;;;;;20.67;2.60;;;;;;;8.49;100.00;99419.19;4996967;28;20053;-90
2022/12/27 13:30:28;;;;;;;25.77;3.05;;;;;;;8.46;100.00;99417.69;5011544;28;20038;-91